Time;durP1;ratioP1;P1;durP2;ratioP2;P2;SDS_P1;SDS_P2;PMS_P1;PMS_P2;Temp;Humidity;BMP_temperature;BMP_pressure;BME280_temperature;BME280_humidity;BME280_pressure;Samples;Min_cycle;Max_cycle;Signal;HPM_P1;HPM_P2
2024/01/27 00:01:45;;;;;;;3.60;1.90;;;;;;;3.95;100.00;96750.09;108815;1272;101428;-81
2024/01/27 00:04:18;;;;;;;2.40;1.60;;;;;;;3.98;100.00;96746.84;108868;1269;23268;-81
2024/01/27 00:06:51;;;;;;;2.60;1.40;;;;;;;4.03;99.97;96746.61;108867;1272;22567;-81
2024/01/27 00:09:27;;;;;;;2.30;1.20;;;;;;;4.04;99.92;96754.34;108928;1271;25015;-81
2024/01/27 00:12:01;;;;;;;4.50;2.20;;;;;;;4.02;99.80;96750.95;108857;1272;25295;-81
2024/01/27 00:14:34;;;;;;;3.80;1.80;;;;;;;4.05;99.63;96767.06;108885;1272;22558;-81
2024/01/27 00:17:08;;;;;;;2.20;1.80;;;;;;;4.06;99.12;96774.32;108913;1272;22579;-81
2024/01/27 00:19:41;;;;;;;2.30;1.40;;;;;;;4.01;98.87;96780.74;108876;1269;24302;-81
2024/01/27 00:22:13;;;;;;;1.70;1.10;;;;;;;3.94;98.49;96790.45;108880;1266;22660;-82
2024/01/27 00:24:50;;;;;;;1.30;0.70;;;;;;;3.82;98.36;96814.92;108818;1272;22520;-82
2024/01/27 00:27:27;;;;;;;1.70;0.70;;;;;;;3.65;98.44;96833.63;108886;1272;22596;-80
2024/01/27 00:30:06;;;;;;;1.60;1.00;;;;;;;3.42;98.34;96870.27;108904;1272;22521;-82
2024/01/27 00:32:38;;;;;;;1.60;1.00;;;;;;;3.28;98.40;96865.84;108861;1272;22530;-81
2024/01/27 00:35:14;;;;;;;0.80;0.80;;;;;;;3.15;98.45;96855.58;108879;1271;24203;-81
2024/01/27 00:37:48;;;;;;;1.50;0.80;;;;;;;3.10;98.94;96862.94;108852;1272;26377;-80
2024/01/27 00:40:20;;;;;;;1.70;1.00;;;;;;;3.10;98.88;96879.39;108892;1272;25291;-80
2024/01/27 00:42:55;;;;;;;1.10;0.80;;;;;;;3.12;98.83;96890.48;108892;1272;23536;-80
2024/01/27 00:45:28;;;;;;;2.20;0.80;;;;;;;3.11;98.78;96899.55;108909;1272;22485;-81
2024/01/27 00:48:04;;;;;;;2.20;0.90;;;;;;;3.14;98.71;96914.39;108921;1272;23825;-80
2024/01/27 00:50:38;;;;;;;3.00;0.90;;;;;;;3.15;98.70;96899.26;108878;1273;22560;-80
2024/01/27 00:53:15;;;;;;;1.60;0.90;;;;;;;3.11;98.73;96915.55;108990;1272;25413;-81
2024/01/27 00:55:50;;;;;;;2.20;1.00;;;;;;;3.08;98.83;96921.06;109020;1272;23687;-80
2024/01/27 00:58:25;;;;;;;1.30;0.70;;;;;;;3.02;98.79;96926.08;108991;1271;22542;-81
2024/01/27 01:00:56;;;;;;;3.10;1.10;;;;;;;2.98;98.63;96956.62;109001;1273;22541;-79
2024/01/27 01:03:30;;;;;;;0.90;0.60;;;;;;;2.94;98.61;96944.56;108975;1269;25421;-81
2024/01/27 01:06:04;;;;;;;2.80;0.80;;;;;;;2.89;98.47;96953.73;109009;1273;22535;-81
2024/01/27 01:08:40;;;;;;;1.50;0.90;;;;;;;2.84;98.27;96955.66;109016;1273;22685;-80
2024/01/27 01:11:14;;;;;;;1.70;0.90;;;;;;;2.76;97.85;96955.36;108921;1273;34200;-81
2024/01/27 01:13:50;;;;;;;2.80;1.10;;;;;;;2.69;97.75;96966.95;108994;1272;24183;-81
2024/01/27 01:16:27;;;;;;;2.80;0.80;;;;;;;2.61;97.68;96958.46;109005;1273;22824;-79
2024/01/27 01:19:01;;;;;;;3.40;0.90;;;;;;;2.56;97.80;96990.05;108939;1266;23971;-80
2024/01/27 01:21:34;;;;;;;2.10;0.80;;;;;;;2.54;97.85;96995.08;108904;1272;36310;-81
2024/01/27 01:24:08;;;;;;;2.60;1.20;;;;;;;2.57;97.86;96985.30;108927;1266;24311;-80
2024/01/27 01:26:40;;;;;;;2.60;0.70;;;;;;;2.58;96.69;96982.40;109256;1265;23817;-81
2024/01/27 01:29:14;;;;;;;3.10;0.90;;;;;;;2.58;95.64;97000.83;109204;1269;22500;-80
2024/01/27 01:31:46;;;;;;;1.90;0.70;;;;;;;2.56;95.64;97002.50;109145;1269;24600;-79
2024/01/27 01:34:17;;;;;;;4.80;1.40;;;;;;;2.53;95.42;96978.27;109128;1272;22529;-81
2024/01/27 01:36:54;;;;;;;3.50;1.50;;;;;;;2.52;94.77;96989.55;109144;1269;25033;-80
2024/01/27 01:39:28;;;;;;;4.30;1.10;;;;;;;2.51;93.97;96987.94;109154;1265;24073;-80
2024/01/27 01:42:07;;;;;;;6.60;1.90;;;;;;;2.48;93.67;96993.84;109080;1273;22913;-80
2024/01/27 01:44:38;;;;;;;5.50;1.10;;;;;;;2.48;93.05;97003.63;109167;1266;22528;-80
2024/01/27 01:47:14;;;;;;;3.50;1.10;;;;;;;2.48;92.64;97008.13;109139;1273;22564;-80
2024/01/27 01:49:48;;;;;;;3.10;0.90;;;;;;;2.48;91.90;97012.63;109115;1269;22537;-80
2024/01/27 01:52:21;;;;;;;6.40;1.70;;;;;;;2.50;91.59;97005.98;109130;1263;23297;-80
2024/01/27 01:54:55;;;;;;;5.10;1.70;;;;;;;2.50;91.43;97022.15;109163;1269;24200;-81
2024/01/27 01:57:26;;;;;;;5.20;1.10;;;;;;;2.51;90.26;97027.63;109131;1273;22527;-80
2024/01/27 01:59:57;;;;;;;6.80;2.00;;;;;;;2.52;89.26;97013.71;109158;1269;22710;-80
2024/01/27 02:02:30;;;;;;;2.70;1.10;;;;;;;2.52;88.78;97033.67;108809;1272;22521;-80
2024/01/27 02:05:01;;;;;;;9.20;1.30;;;;;;;2.51;88.60;97034.51;108876;1266;25032;-80
2024/01/27 02:07:38;;;;;;;4.20;0.90;;;;;;;2.49;88.19;97034.00;108913;1272;22543;-80
2024/01/27 02:10:18;;;;;;;5.00;0.90;;;;;;;2.51;88.06;97038.49;108816;1272;22683;-80
2024/01/27 02:12:49;;;;;;;5.40;1.40;;;;;;;2.52;88.11;97017.27;108844;1269;22526;-80
2024/01/27 02:15:23;;;;;;;5.80;0.80;;;;;;;2.50;87.72;97016.16;108864;1272;22521;-80
2024/01/27 02:17:56;;;;;;;5.20;1.10;;;;;;;2.49;87.68;97008.60;108885;1272;22529;-80
2024/01/27 02:20:28;;;;;;;6.80;1.80;;;;;;;2.50;86.99;97012.41;108932;1272;22530;-81
2024/01/27 02:23:05;;;;;;;5.00;1.80;;;;;;;2.51;86.85;97023.15;108861;1272;22524;-81
2024/01/27 02:25:37;;;;;;;5.50;2.10;;;;;;;2.49;86.94;97030.98;108865;1267;22532;-80
2024/01/27 02:28:16;;;;;;;8.00;2.60;;;;;;;2.48;86.92;97000.05;109141;1272;22628;-80
2024/01/27 02:30:47;;;;;;;5.00;1.80;;;;;;;2.47;86.67;97023.80;109115;1269;25465;-80
2024/01/27 02:33:18;;;;;;;4.00;1.20;;;;;;;2.44;87.06;97010.92;109189;1272;23838;-80
2024/01/27 02:35:50;;;;;;;6.20;1.90;;;;;;;2.42;86.98;97008.05;109165;1266;23292;-80
2024/01/27 02:38:28;;;;;;;5.90;1.70;;;;;;;2.42;87.15;97011.23;109149;1272;25291;-81
2024/01/27 02:41:04;;;;;;;6.30;2.20;;;;;;;2.43;86.78;96996.60;109102;1272;22521;-81
2024/01/27 02:43:35;;;;;;;5.40;1.80;;;;;;;2.38;86.83;97008.35;109099;1272;22531;-81
2024/01/27 02:46:15;;;;;;;3.10;1.50;;;;;;;2.19;88.48;97017.61;109174;1269;23014;-81
2024/01/27 02:48:46;;;;;;;2.90;1.20;;;;;;;1.99;89.44;97031.14;109113;1272;22533;-81
2024/01/27 02:51:24;;;;;;;3.20;1.20;;;;;;;1.89;89.98;97025.66;109078;1272;23835;-80
2024/01/27 02:54:00;;;;;;;8.50;1.90;;;;;;;1.85;90.96;97023.65;109117;1266;22556;-81
2024/01/27 02:56:33;;;;;;;6.40;2.60;;;;;;;1.83;91.76;97030.89;109159;1272;22637;-81
2024/01/27 02:59:07;;;;;;;6.80;2.00;;;;;;;1.77;92.59;97050.52;109133;1269;22536;-81
2024/01/27 03:01:40;;;;;;;4.10;1.60;;;;;;;1.70;92.24;97046.61;109175;1272;22532;-81
2024/01/27 03:04:11;;;;;;;5.50;1.60;;;;;;;1.72;92.95;97044.33;109083;1272;22541;-81
2024/01/27 03:06:42;;;;;;;7.70;2.80;;;;;;;1.74;93.17;97024.98;108879;1272;23795;-80
2024/01/27 03:09:19;;;;;;;5.60;1.40;;;;;;;1.80;92.99;97066.14;108875;1272;22559;-80
2024/01/27 03:11:50;;;;;;;13.50;2.00;;;;;;;1.85;92.54;97051.73;108816;1272;22696;-79
2024/01/27 03:14:25;;;;;;;7.70;1.50;;;;;;;1.88;91.97;97049.16;108856;1272;24186;-80
2024/01/27 03:16:56;;;;;;;7.60;1.80;;;;;;;1.93;91.39;97045.90;108948;1269;22544;-80
2024/01/27 03:19:29;;;;;;;5.90;1.40;;;;;;;1.95;90.18;97060.92;108995;1266;25294;-80
2024/01/27 03:22:05;;;;;;;4.90;1.40;;;;;;;2.00;88.81;97060.42;108965;1256;22558;-80
2024/01/27 03:24:38;;;;;;;5.80;1.30;;;;;;;1.98;88.52;97072.52;108886;1270;23855;-80
2024/01/27 03:27:11;;;;;;;8.50;2.20;;;;;;;2.00;87.39;97073.23;108856;1272;22565;-80
2024/01/27 03:29:42;;;;;;;6.00;1.40;;;;;;;2.02;86.57;97068.45;108837;1266;24210;-80
2024/01/27 03:32:16;;;;;;;6.20;1.80;;;;;;;2.03;86.18;97064.79;108811;1271;22532;-80
2024/01/27 03:34:56;;;;;;;5.50;1.20;;;;;;;2.02;85.60;97082.25;108811;1272;24037;-79
2024/01/27 03:37:27;;;;;;;5.30;1.20;;;;;;;2.03;85.48;97071.61;108860;1272;22514;-80
2024/01/27 03:40:00;;;;;;;6.60;1.50;;;;;;;2.01;85.52;97085.03;108838;1272;24221;-80
2024/01/27 03:42:31;;;;;;;5.00;1.20;;;;;;;1.99;85.44;97078.05;108803;1272;22524;-79
2024/01/27 03:45:03;;;;;;;5.00;1.30;;;;;;;1.99;85.17;97091.98;108880;1265;22759;-80
2024/01/27 03:47:39;;;;;;;8.20;1.30;;;;;;;1.98;85.18;97078.98;108798;1272;22677;-80
2024/01/27 03:50:23;;;;;;;7.60;1.70;;;;;;;1.94;85.24;97093.52;108914;1266;23341;-80
2024/01/27 03:52:57;;;;;;;9.70;2.60;;;;;;;1.93;84.81;97072.77;108927;1272;22541;-80
2024/01/27 03:55:31;;;;;;;10.10;1.60;;;;;;;1.94;84.22;97079.92;108880;1269;22585;-79
2024/01/27 03:58:04;;;;;;;8.50;1.10;;;;;;;1.93;84.22;97075.45;108900;1272;23180;-79
2024/01/27 04:00:38;;;;;;;7.40;2.30;;;;;;;1.94;83.83;97052.01;108827;1272;23156;-80
2024/01/27 04:03:11;;;;;;;2.40;1.00;;;;;;;1.93;83.31;97086.60;108903;1272;22525;-80
2024/01/27 04:05:45;;;;;;;5.60;1.50;;;;;;;1.92;83.71;97085.57;108861;1272;22457;-80
2024/01/27 04:08:16;;;;;;;5.10;1.10;;;;;;;1.92;84.08;97089.59;108911;1272;22670;-80
2024/01/27 04:10:49;;;;;;;9.50;1.20;;;;;;;1.92;84.24;97081.18;108831;1266;22529;-79
2024/01/27 04:13:21;;;;;;;5.50;1.20;;;;;;;1.93;84.16;97084.39;108916;1272;22531;-80
2024/01/27 04:15:53;;;;;;;4.10;1.00;;;;;;;1.93;84.17;97100.08;108970;1269;22522;-80
2024/01/27 04:18:27;;;;;;;5.10;1.60;;;;;;;1.93;84.12;97095.86;108929;1272;24064;-80
2024/01/27 04:21:01;;;;;;;4.60;1.10;;;;;;;1.92;83.81;97086.45;108911;1269;22937;-80
2024/01/27 04:23:34;;;;;;;11.80;1.70;;;;;;;1.90;83.72;97095.48;108901;1272;23932;-80
2024/01/27 04:26:11;;;;;;;7.40;1.30;;;;;;;1.91;83.51;97091.38;108836;1267;22565;-80
2024/01/27 04:28:42;;;;;;;6.00;2.00;;;;;;;1.89;83.59;97100.31;108862;1272;22500;-80
2024/01/27 04:31:13;;;;;;;6.20;1.20;;;;;;;1.88;83.98;97106.36;108832;1268;25294;-79
2024/01/27 04:33:44;;;;;;;2.80;1.10;;;;;;;1.87;84.09;97130.46;108865;1272;22530;-80
2024/01/27 04:36:25;;;;;;;3.30;1.10;;;;;;;1.77;84.94;97128.09;108949;1269;22531;-79
2024/01/27 04:39:06;;;;;;;1.90;0.70;;;;;;;1.44;86.86;97137.21;108910;1272;22837;-79
2024/01/27 04:41:42;;;;;;;3.30;1.10;;;;;;;1.28;87.49;97145.40;108841;1272;22521;-79
2024/01/27 04:44:15;;;;;;;3.60;1.40;;;;;;;1.26;87.82;97140.64;108811;1272;25497;-79
2024/01/27 04:46:46;;;;;;;3.90;0.90;;;;;;;1.23;87.75;97140.89;108894;1270;24231;-78
2024/01/27 04:49:20;;;;;;;4.10;0.80;;;;;;;1.20;88.02;97125.20;108898;1272;22450;-79
2024/01/27 04:51:52;;;;;;;5.10;0.90;;;;;;;1.16;88.15;97128.52;108885;1272;22521;-80
2024/01/27 04:54:23;;;;;;;6.00;1.00;;;;;;;1.14;88.64;97120.09;108884;1272;22664;-80
2024/01/27 04:56:54;;;;;;;2.30;0.70;;;;;;;1.16;88.55;97125.91;108867;1266;22555;-80
2024/01/27 04:59:26;;;;;;;4.00;0.90;;;;;;;1.18;89.02;97141.11;108898;1270;22882;-80
2024/01/27 05:02:01;;;;;;;3.70;1.10;;;;;;;1.18;89.23;97124.20;108911;1272;22630;-81
2024/01/27 05:04:38;;;;;;;4.50;1.40;;;;;;;1.19;90.33;97105.31;108805;1270;22529;-80
2024/01/27 05:07:14;;;;;;;9.30;1.60;;;;;;;1.27;90.43;97137.56;108892;1272;25312;-80
2024/01/27 05:09:47;;;;;;;4.60;1.30;;;;;;;1.33;90.48;97129.77;108893;1272;22531;-80
2024/01/27 05:12:18;;;;;;;10.10;2.50;;;;;;;1.34;90.59;97138.25;108901;1272;22513;-81
2024/01/27 05:14:54;;;;;;;6.10;2.00;;;;;;;1.36;90.58;97128.52;108882;1272;22663;-80
2024/01/27 05:17:25;;;;;;;8.40;1.60;;;;;;;1.38;90.40;97156.19;108850;1270;22528;-80
2024/01/27 05:20:04;;;;;;;9.20;2.10;;;;;;;1.40;90.21;97160.77;108885;1272;24030;-80
2024/01/27 05:22:35;;;;;;;6.50;1.70;;;;;;;1.43;90.06;97157.76;108849;1267;23766;-80
2024/01/27 05:25:07;;;;;;;5.20;1.60;;;;;;;1.46;89.63;97167.14;108847;1257;22553;-80
2024/01/27 05:27:39;;;;;;;6.80;1.40;;;;;;;1.50;89.30;97162.14;108910;1272;22999;-81
2024/01/27 05:30:12;;;;;;;7.40;2.00;;;;;;;1.51;88.67;97160.33;108886;1273;22722;-80
2024/01/27 05:32:45;;;;;;;10.90;2.40;;;;;;;1.53;87.77;97147.57;108884;1272;23120;-81
2024/01/27 05:35:16;;;;;;;9.00;2.30;;;;;;;1.56;87.13;97160.77;108825;1272;22606;-80
2024/01/27 05:37:51;;;;;;;9.40;1.90;;;;;;;1.55;86.88;97138.05;108901;1268;22524;-81
2024/01/27 05:40:25;;;;;;;4.50;2.10;;;;;;;1.56;86.74;97171.91;108929;1272;22540;-80
2024/01/27 05:42:56;;;;;;;12.10;2.40;;;;;;;1.55;86.54;97170.82;108903;1272;25460;-80
2024/01/27 05:45:31;;;;;;;5.10;1.30;;;;;;;1.55;86.44;97185.81;108840;1267;22515;-81
2024/01/27 05:48:04;;;;;;;5.90;1.80;;;;;;;1.53;86.52;97182.38;108922;1273;22624;-81
2024/01/27 05:50:35;;;;;;;7.30;2.10;;;;;;;1.54;86.10;97184.18;108905;1272;23807;-82
2024/01/27 05:53:07;;;;;;;3.10;1.00;;;;;;;1.54;85.61;97181.35;108877;1272;22521;-80
2024/01/27 05:55:38;;;;;;;5.50;1.80;;;;;;;1.55;85.29;97176.21;108882;1272;22626;-80
2024/01/27 05:58:11;;;;;;;5.70;1.30;;;;;;;1.52;85.22;97172.58;108904;1273;22546;-79
2024/01/27 06:00:52;;;;;;;11.40;2.70;;;;;;;1.47;85.29;97187.52;108887;1272;22513;-81
2024/01/27 06:03:23;;;;;;;3.20;1.40;;;;;;;1.42;85.31;97177.09;108980;1272;22893;-80
2024/01/27 06:05:56;;;;;;;8.00;1.50;;;;;;;1.40;84.86;97170.34;108895;1272;23880;-80
2024/01/27 06:08:28;;;;;;;5.00;1.00;;;;;;;1.36;85.25;97180.63;108904;1272;22531;-80
2024/01/27 06:11:06;;;;;;;5.60;1.90;;;;;;;1.33;85.65;97189.17;108903;1272;22525;-80
2024/01/27 06:13:40;;;;;;;4.20;1.80;;;;;;;1.34;85.93;97186.75;108893;1272;22545;-80
2024/01/27 06:16:14;;;;;;;5.90;1.60;;;;;;;1.33;86.31;97192.47;108861;1273;24155;-81
2024/01/27 06:18:48;;;;;;;7.50;1.90;;;;;;;1.32;86.36;97196.57;108841;1272;22530;-81
2024/01/27 06:21:26;;;;;;;6.40;1.60;;;;;;;1.35;86.18;97196.35;108824;1267;29440;-81
2024/01/27 06:23:57;;;;;;;6.60;1.80;;;;;;;1.35;86.33;97191.58;108884;1266;22513;-81
2024/01/27 06:26:28;;;;;;;6.70;2.00;;;;;;;1.37;86.10;97200.96;108931;1254;24126;-80
2024/01/27 06:29:04;;;;;;;4.00;1.00;;;;;;;1.37;86.20;97197.15;108898;1272;22690;-81
2024/01/27 06:31:35;;;;;;;5.00;2.10;;;;;;;1.37;86.08;97211.53;108935;1267;23720;-80
2024/01/27 06:34:08;;;;;;;7.30;2.20;;;;;;;1.40;85.97;97213.83;108971;1269;22688;-80
2024/01/27 06:36:42;;;;;;;7.10;1.80;;;;;;;1.44;85.46;97219.85;108953;1272;22500;-81
2024/01/27 06:39:13;;;;;;;9.60;1.90;;;;;;;1.46;85.03;97234.35;108964;1272;22516;-81
2024/01/27 06:41:51;;;;;;;8.20;1.80;;;;;;;1.47;85.00;97232.54;108891;1272;23755;-81
2024/01/27 06:44:27;;;;;;;6.50;2.20;;;;;;;1.48;84.56;97243.46;108952;1273;22597;-80
2024/01/27 06:47:00;;;;;;;5.40;1.50;;;;;;;1.50;83.95;97235.38;109006;1267;24256;-81
2024/01/27 06:49:33;;;;;;;7.40;1.60;;;;;;;1.53;83.54;97245.86;108954;1272;22784;-81
2024/01/27 06:52:08;;;;;;;9.60;1.60;;;;;;;1.53;83.76;97242.73;108951;1267;23680;-81
2024/01/27 06:54:45;;;;;;;6.10;2.00;;;;;;;1.54;83.53;97247.48;108996;1273;22623;-81
2024/01/27 06:57:28;;;;;;;8.50;2.50;;;;;;;1.55;82.91;97243.63;108954;1267;22534;-81
2024/01/27 06:59:59;;;;;;;6.90;1.80;;;;;;;1.57;82.10;97245.79;109016;1270;22532;-81
2024/01/27 07:02:36;;;;;;;5.70;1.70;;;;;;;1.56;81.68;97238.96;108938;1267;22656;-81
2024/01/27 07:05:12;;;;;;;5.60;1.70;;;;;;;1.55;81.47;97246.02;108999;1272;23736;-81
2024/01/27 07:07:43;;;;;;;6.40;1.90;;;;;;;1.56;81.37;97250.66;109087;1272;22522;-80
2024/01/27 07:10:14;;;;;;;9.10;1.60;;;;;;;1.55;81.18;97247.40;109052;1272;22526;-80
2024/01/27 07:12:48;;;;;;;8.00;2.00;;;;;;;1.54;81.69;97245.89;108983;1272;22511;-80
2024/01/27 07:15:23;;;;;;;6.10;1.70;;;;;;;1.53;81.55;97243.20;108967;1272;22743;-80
2024/01/27 07:17:57;;;;;;;8.80;2.20;;;;;;;1.53;81.84;97250.05;108946;1272;22564;-80
2024/01/27 07:20:29;;;;;;;9.30;2.20;;;;;;;1.52;81.77;97249.91;108904;1266;22500;-81
2024/01/27 07:23:02;;;;;;;7.80;1.90;;;;;;;1.54;82.14;97250.95;108855;1272;23471;-80
2024/01/27 07:25:35;;;;;;;7.60;2.10;;;;;;;1.55;82.30;97250.41;108913;1269;22529;-81
2024/01/27 07:28:11;;;;;;;5.80;1.80;;;;;;;1.54;82.49;97253.01;108898;1272;22520;-80
2024/01/27 07:30:41;;;;;;;6.20;1.90;;;;;;;1.54;82.42;97244.48;108869;1251;22524;-81
2024/01/27 07:33:12;;;;;;;5.10;1.40;;;;;;;1.55;82.42;97241.95;108812;1272;25408;-80
2024/01/27 07:35:48;;;;;;;3.20;1.60;;;;;;;1.57;82.43;97242.86;108892;1272;22531;-80
2024/01/27 07:38:21;;;;;;;9.90;2.70;;;;;;;1.57;81.88;97224.16;108862;1272;22532;-81
2024/01/27 07:40:55;;;;;;;9.20;1.90;;;;;;;1.58;81.34;97236.30;108825;1272;23850;-80
2024/01/27 07:43:30;;;;;;;4.80;1.10;;;;;;;1.60;81.93;97245.73;108913;1251;23816;-80
2024/01/27 07:46:02;;;;;;;6.70;2.20;;;;;;;1.64;82.04;97231.44;108883;1267;25364;-80
2024/01/27 07:48:37;;;;;;;7.40;1.80;;;;;;;1.63;81.77;97228.64;108863;1272;22551;-81
2024/01/27 07:51:08;;;;;;;9.80;2.20;;;;;;;1.60;81.22;97231.45;108799;1272;28101;-81
2024/01/27 07:53:39;;;;;;;9.10;3.00;;;;;;;1.60;80.31;97239.62;108865;1265;22527;-81
2024/01/27 07:56:13;;;;;;;8.00;2.20;;;;;;;1.60;80.12;97232.51;108884;1263;22533;-81
2024/01/27 07:58:46;;;;;;;9.00;2.10;;;;;;;1.61;79.92;97232.86;108853;1272;23521;-81
2024/01/27 08:01:21;;;;;;;7.20;1.90;;;;;;;1.60;80.23;97239.14;108888;1273;22533;-81
2024/01/27 08:03:57;;;;;;;6.00;1.80;;;;;;;1.59;79.86;97247.95;108856;1272;22529;-81
2024/01/27 08:06:34;;;;;;;7.80;2.20;;;;;;;1.56;79.96;97237.23;108907;1270;25433;-81
2024/01/27 08:09:05;;;;;;;8.40;2.90;;;;;;;1.53;80.01;97243.20;108894;1266;22483;-81
2024/01/27 08:11:39;;;;;;;8.50;2.10;;;;;;;1.51;79.85;97243.85;108888;1251;22718;-80
2024/01/27 08:14:12;;;;;;;8.40;2.70;;;;;;;1.51;80.19;97249.05;108896;1272;22541;-81
2024/01/27 08:16:47;;;;;;;6.10;2.20;;;;;;;1.50;79.88;97243.91;108889;1261;22561;-81
2024/01/27 08:19:20;;;;;;;8.00;2.50;;;;;;;1.48;79.66;97243.95;108841;1272;25426;-81
2024/01/27 08:21:52;;;;;;;4.80;1.80;;;;;;;1.50;79.30;97240.08;108840;1272;22881;-81
2024/01/27 08:24:23;;;;;;;15.90;3.80;;;;;;;1.52;79.13;97233.96;108953;1250;22548;-80
2024/01/27 08:27:01;;;;;;;7.20;2.40;;;;;;;1.55;78.16;97227.29;108873;1272;22528;-80
2024/01/27 08:29:32;;;;;;;5.80;1.70;;;;;;;1.58;78.48;97242.73;108890;1272;22551;-79
2024/01/27 08:32:07;;;;;;;12.90;3.70;;;;;;;1.61;78.50;97228.92;108889;1272;22525;-80
2024/01/27 08:34:39;;;;;;;6.30;2.10;;;;;;;1.65;78.57;97228.54;108812;1272;22516;-79
2024/01/27 08:37:18;;;;;;;8.90;2.30;;;;;;;1.65;77.81;97226.36;108907;1266;24330;-80
2024/01/27 08:39:53;;;;;;;8.90;1.90;;;;;;;1.65;77.39;97236.98;108930;1267;22483;-79
2024/01/27 08:42:29;;;;;;;5.20;1.80;;;;;;;1.67;77.91;97246.49;108899;1269;22574;-80
2024/01/27 08:45:04;;;;;;;6.40;1.90;;;;;;;1.69;77.92;97251.46;108916;1272;22534;-80
2024/01/27 08:47:39;;;;;;;11.00;2.80;;;;;;;1.70;78.10;97262.32;108907;1272;22467;-79
2024/01/27 08:50:14;;;;;;;5.50;1.60;;;;;;;1.70;77.77;97261.15;108842;1265;22526;-79
2024/01/27 08:52:48;;;;;;;13.60;3.10;;;;;;;1.67;77.73;97259.52;108877;1269;22549;-80
2024/01/27 08:55:26;;;;;;;8.30;2.80;;;;;;;1.68;77.93;97256.51;108911;1267;24469;-79
2024/01/27 08:58:00;;;;;;;10.30;1.70;;;;;;;1.67;77.93;97265.48;108966;1272;22647;-80
2024/01/27 09:00:35;;;;;;;10.10;2.10;;;;;;;1.66;77.68;97272.56;108895;1267;22544;-79
2024/01/27 09:03:07;;;;;;;8.20;2.80;;;;;;;1.67;77.88;97274.61;108876;1273;23847;-80
2024/01/27 09:05:38;;;;;;;6.80;1.90;;;;;;;1.67;77.16;97272.64;108875;1272;22826;-79
2024/01/27 09:08:09;;;;;;;14.70;3.40;;;;;;;1.69;77.35;97281.84;108913;1272;25343;-79
2024/01/27 09:10:43;;;;;;;7.40;2.20;;;;;;;1.64;76.98;97267.34;108888;1265;22555;-78
2024/01/27 09:13:18;;;;;;;7.40;2.20;;;;;;;1.56;77.64;97277.34;108906;1272;23892;-78
2024/01/27 09:15:56;;;;;;;6.50;2.10;;;;;;;1.49;78.02;97290.05;108845;1273;22698;-78
2024/01/27 09:18:30;;;;;;;31.40;3.20;;;;;;;1.42;78.32;97288.02;108816;1254;22653;-79
2024/01/27 09:21:05;;;;;;;9.80;2.50;;;;;;;1.35;78.99;97286.25;108845;1272;22837;-79
2024/01/27 09:23:39;;;;;;;11.40;2.60;;;;;;;1.29;79.55;97283.90;108841;1271;22656;-73
2024/01/27 09:26:15;;;;;;;11.60;3.10;;;;;;;1.26;80.20;97284.92;108828;1272;23941;-76
2024/01/27 09:28:53;;;;;;;5.80;2.40;;;;;;;1.25;80.75;97290.71;108904;1272;22562;-75
2024/01/27 09:31:28;;;;;;;6.00;2.50;;;;;;;1.25;80.92;97289.51;108840;1266;24254;-77
2024/01/27 09:34:01;;;;;;;10.00;2.30;;;;;;;1.19;81.72;97297.23;108872;1273;22475;-77
2024/01/27 09:36:35;;;;;;;2.60;1.40;;;;;;;1.12;82.24;97302.38;108908;1266;24212;-77
2024/01/27 09:39:08;;;;;;;6.30;1.60;;;;;;;1.07;82.84;97295.74;108880;1272;23840;-78
2024/01/27 09:41:40;;;;;;;12.20;3.20;;;;;;;1.04;83.34;97297.96;108900;1272;22552;-78
2024/01/27 09:44:13;;;;;;;9.60;2.60;;;;;;;1.03;83.88;97294.27;108886;1266;22555;-77
2024/01/27 09:46:45;;;;;;;4.80;1.90;;;;;;;1.04;84.06;97296.39;108926;1267;22573;-78
2024/01/27 09:49:17;;;;;;;7.90;3.40;;;;;;;0.98;85.14;97294.17;108963;1272;25417;-77
2024/01/27 09:51:52;;;;;;;11.20;2.60;;;;;;;0.88;85.62;97303.41;108860;1266;25414;-77
2024/01/27 09:54:29;;;;;;;5.40;1.90;;;;;;;0.76;86.71;97310.51;108904;1249;23334;-78
2024/01/27 09:57:04;;;;;;;7.20;2.00;;;;;;;0.66;86.96;97304.17;108885;1269;24047;-77
2024/01/27 09:59:37;;;;;;;4.30;1.80;;;;;;;0.58;88.08;97305.49;108947;1273;22537;-77
2024/01/27 10:02:12;;;;;;;5.70;2.00;;;;;;;0.53;88.65;97313.09;108882;1273;22540;-77
2024/01/27 10:04:51;;;;;;;8.10;2.80;;;;;;;0.51;90.25;97294.71;108851;1272;22528;-76
2024/01/27 10:07:25;;;;;;;9.90;2.60;;;;;;;0.51;89.91;97301.98;108866;1266;23693;-79
2024/01/27 10:09:58;;;;;;;3.10;1.60;;;;;;;0.54;89.58;97309.33;108890;1270;22516;-78
2024/01/27 10:12:37;;;;;;;8.20;2.20;;;;;;;0.53;89.48;97318.08;108870;1272;23811;-77
2024/01/27 10:15:21;;;;;;;8.60;3.40;;;;;;;0.53;89.84;97314.70;108906;1269;22524;-77
2024/01/27 10:18:04;;;;;;;7.60;2.00;;;;;;;0.49;90.81;97315.19;108873;1266;22680;-76
2024/01/27 10:20:38;;;;;;;6.60;2.80;;;;;;;0.48;91.09;97318.04;108887;1267;22627;-77
2024/01/27 10:23:16;;;;;;;8.20;2.80;;;;;;;0.51;91.12;97312.65;108899;1272;22527;-78
2024/01/27 10:25:50;;;;;;;4.00;1.30;;;;;;;0.57;90.75;97302.80;108942;1266;24137;-78
2024/01/27 10:28:23;;;;;;;3.30;1.80;;;;;;;0.63;90.62;97308.56;108913;1269;22530;-78
2024/01/27 10:30:54;;;;;;;6.10;2.10;;;;;;;0.64;91.04;97299.05;108890;1272;22551;-77
2024/01/27 10:33:31;;;;;;;5.00;2.00;;;;;;;0.59;91.26;97306.78;108851;1269;23037;-77
2024/01/27 10:36:10;;;;;;;5.50;2.30;;;;;;;0.55;90.98;97305.20;108931;1272;23845;-77
2024/01/27 10:38:42;;;;;;;6.80;3.00;;;;;;;0.54;91.45;97309.85;108844;1272;23749;-77
2024/01/27 10:41:16;;;;;;;8.20;2.80;;;;;;;0.56;91.13;97311.30;108871;1268;22532;-77
2024/01/27 10:43:56;;;;;;;5.80;1.80;;;;;;;0.57;91.35;97314.77;108954;1272;25254;-77
2024/01/27 10:46:29;;;;;;;4.70;2.10;;;;;;;0.61;91.25;97322.32;108915;1272;22769;-77
2024/01/27 10:49:06;;;;;;;4.40;2.00;;;;;;;0.63;91.32;97323.69;108898;1271;22524;-76
2024/01/27 10:51:42;;;;;;;6.40;2.50;;;;;;;0.62;91.32;97315.10;108871;1272;26323;-77
2024/01/27 10:54:21;;;;;;;3.90;1.70;;;;;;;0.58;91.57;97327.62;108871;1269;24157;-77
2024/01/27 10:57:01;;;;;;;3.50;1.50;;;;;;;0.63;92.01;97313.97;108840;1273;22521;-77
2024/01/27 10:59:39;;;;;;;3.10;1.70;;;;;;;0.64;92.04;97312.73;108898;1266;22539;-77
2024/01/27 11:02:17;;;;;;;3.20;1.60;;;;;;;0.59;92.30;97317.66;108870;1269;22520;-77
2024/01/27 11:04:54;;;;;;;3.50;1.80;;;;;;;0.59;92.79;97312.81;108883;1272;25974;-77
2024/01/27 11:07:31;;;;;;;3.10;1.60;;;;;;;0.57;92.78;97318.52;108873;1272;22515;-76
2024/01/27 11:10:10;;;;;;;4.20;2.00;;;;;;;0.57;92.73;97324.73;108956;1266;24154;-77
2024/01/27 11:12:44;;;;;;;6.10;2.30;;;;;;;0.55;92.79;97327.23;108836;1272;22527;-76
2024/01/27 11:15:22;;;;;;;3.70;1.80;;;;;;;0.54;93.00;97326.45;108884;1272;22524;-76
2024/01/27 11:18:02;;;;;;;7.70;1.80;;;;;;;0.53;93.37;97325.90;108791;1272;22521;-77
2024/01/27 11:20:35;;;;;;;4.10;1.80;;;;;;;0.52;93.26;97326.06;108934;1272;22635;-77
2024/01/27 11:23:16;;;;;;;6.30;1.80;;;;;;;0.52;93.36;97328.48;108785;1266;22535;-77
2024/01/27 11:25:50;;;;;;;6.40;3.10;;;;;;;0.54;93.45;97326.50;108583;1258;22529;-78
2024/01/27 11:28:28;;;;;;;6.30;2.70;;;;;;;0.53;93.67;97325.54;108877;1251;22633;-77
2024/01/27 11:31:08;;;;;;;7.40;3.30;;;;;;;0.54;94.19;97322.73;108872;1269;23342;-78
2024/01/27 11:33:46;;;;;;;8.70;3.20;;;;;;;0.54;93.87;97332.44;108768;1266;22531;-77
2024/01/27 11:36:25;;;;;;;7.00;2.50;;;;;;;0.57;93.99;97321.46;108795;1266;25279;-77
2024/01/27 11:38:58;;;;;;;6.10;2.00;;;;;;;0.63;94.16;97322.95;108749;1266;24177;-78
2024/01/27 11:41:40;;;;;;;6.60;2.40;;;;;;;0.69;94.09;97332.61;108780;1262;22541;-78
2024/01/27 11:44:17;;;;;;;6.80;3.30;;;;;;;0.74;94.09;97331.30;108807;1266;24193;-78
2024/01/27 11:46:53;;;;;;;7.50;2.80;;;;;;;0.74;93.56;97328.09;108703;1265;25914;-78
2024/01/27 11:49:25;;;;;;;7.40;2.10;;;;;;;0.76;93.42;97332.30;108668;1266;25226;-77
2024/01/27 11:51:58;;;;;;;10.10;3.50;;;;;;;0.78;93.34;97337.38;108683;1266;23878;-77
2024/01/27 11:54:36;;;;;;;8.30;2.30;;;;;;;0.77;93.64;97331.95;108754;1266;24014;-77
2024/01/27 11:57:08;;;;;;;7.50;2.20;;;;;;;0.77;93.53;97343.23;108755;1259;23810;-77
2024/01/27 11:59:42;;;;;;;5.50;2.20;;;;;;;0.81;93.22;97345.88;108846;1265;24427;-78
2024/01/27 12:02:16;;;;;;;5.20;2.00;;;;;;;0.82;93.25;97354.39;108701;1257;167194;-78
2024/01/27 12:04:55;;;;;;;6.00;2.30;;;;;;;0.83;93.19;97346.20;108803;1265;22623;-78